Time;durP1;ratioP1;P1;durP2;ratioP2;P2;SDS_P1;SDS_P2;PMS_P1;PMS_P2;Temp;Humidity;BMP_temperature;BMP_pressure;BME280_temperature;BME280_humidity;BME280_pressure;Samples;Min_cycle;Max_cycle;Signal;HPM_P1;HPM_P2
2022/11/12 00:00:41;;;;;;;8.15;5.72;;;11.10;83.00;;;;;;5050653;28;20029;-56
2022/11/12 00:03:07;;;;;;;7.78;5.28;;;11.20;83.10;;;;;;5049990;28;20029;-57
2022/11/12 00:05:33;;;;;;;6.65;4.40;;;11.10;83.00;;;;;;5052357;28;20045;-56
2022/11/12 00:07:59;;;;;;;6.18;4.95;;;11.10;83.00;;;;;;5055930;28;20032;-56
2022/11/12 00:10:26;;;;;;;7.00;4.88;;;11.10;83.00;;;;;;5052347;28;20482;-56
2022/11/12 00:12:52;;;;;;;8.27;5.25;;;11.10;83.10;;;;;;5053098;28;20029;-56
2022/11/12 00:15:18;;;;;;;7.60;5.35;;;11.10;82.90;;;;;;5053967;28;20025;-55
2022/11/12 00:17:44;;;;;;;6.55;4.47;;;11.20;83.00;;;;;;5052265;28;20033;-56
2022/11/12 00:20:10;;;;;;;6.72;4.80;;;11.10;82.90;;;;;;5053404;28;20118;-56
2022/11/12 00:22:36;;;;;;;7.15;5.22;;;11.10;82.90;;;;;;5056340;28;20154;-56
2022/11/12 00:25:02;;;;;;;7.43;5.00;;;11.10;82.80;;;;;;5059580;28;20040;-56
2022/11/12 00:27:28;;;;;;;7.20;4.80;;;11.10;82.70;;;;;;5053224;28;20040;-56
2022/11/12 00:29:54;;;;;;;6.82;4.78;;;11.10;82.80;;;;;;5051591;28;20388;-56
2022/11/12 00:32:19;;;;;;;7.00;4.72;;;11.00;82.70;;;;;;5051737;28;20060;-55
2022/11/12 00:34:45;;;;;;;6.28;4.03;;;11.00;82.80;;;;;;5058412;28;20368;-56
2022/11/12 00:37:11;;;;;;;8.18;5.18;;;11.00;82.80;;;;;;5051162;28;20037;-57
2022/11/12 00:39:36;;;;;;;6.10;4.80;;;11.00;82.80;;;;;;5051473;28;20029;-56
2022/11/12 00:42:02;;;;;;;6.68;4.47;;;11.00;82.70;;;;;;5064404;28;20024;-56
2022/11/12 00:44:28;;;;;;;6.47;4.30;;;10.90;82.60;;;;;;5052037;28;20067;-55
2022/11/12 00:46:55;;;;;;;5.65;4.30;;;11.00;82.60;;;;;;5050241;28;20123;-56
2022/11/12 00:49:20;;;;;;;6.82;5.07;;;10.90;82.60;;;;;;5056137;28;20029;-55
2022/11/12 00:51:46;;;;;;;6.78;4.47;;;10.90;82.60;;;;;;5051820;28;20464;-57
2022/11/12 00:54:12;;;;;;;7.82;5.53;;;10.90;82.40;;;;;;5060830;28;20025;-56
2022/11/12 00:56:37;;;;;;;8.98;5.88;;;10.90;82.30;;;;;;5045439;28;20030;-55
2022/11/12 00:59:03;;;;;;;8.50;6.07;;;10.90;82.20;;;;;;5057265;28;20090;-56
2022/11/12 01:01:28;;;;;;;7.80;5.85;;;10.90;82.10;;;;;;5058899;28;20082;-56
2022/11/12 01:03:57;;;;;;;8.43;6.00;;;10.80;81.90;;;;;;5057210;28;20045;-56
2022/11/12 01:06:23;;;;;;;7.60;5.75;;;10.80;81.90;;;;;;5051469;28;20021;-56
2022/11/12 01:08:49;;;;;;;8.48;5.95;;;10.80;81.80;;;;;;5057467;28;20028;-57
2022/11/12 01:11:22;;;;;;;9.25;6.15;;;10.80;81.60;;;;;;5056380;28;20357;-55
2022/11/12 01:13:55;;;;;;;7.18;5.20;;;10.80;81.40;;;;;;5057657;28;20028;-56
2022/11/12 01:16:23;;;;;;;6.78;5.78;;;10.70;81.20;;;;;;5062549;28;20025;-57
2022/11/12 01:18:54;;;;;;;9.23;6.53;;;10.70;81.20;;;;;;5050843;28;20067;-56
2022/11/12 01:21:20;;;;;;;9.35;5.88;;;10.60;80.90;;;;;;5055685;28;20064;-56
2022/11/12 01:23:46;;;;;;;7.80;5.88;;;10.60;80.80;;;;;;5061088;28;20083;-56
2022/11/12 01:26:17;;;;;;;8.05;5.40;;;10.50;80.80;;;;;;5054936;28;20426;-55
2022/11/12 01:28:43;;;;;;;7.53;5.78;;;10.50;80.90;;;;;;5054768;28;20136;-56
2022/11/12 01:31:16;;;;;;;9.00;6.25;;;10.40;80.50;;;;;;5055410;28;20111;-56
2022/11/12 01:33:44;;;;;;;9.40;6.43;;;10.40;80.40;;;;;;5056310;28;20421;-57
2022/11/12 01:36:11;;;;;;;7.70;5.63;;;10.30;80.40;;;;;;5062458;28;20472;-57
2022/11/12 01:38:39;;;;;;;8.13;6.10;;;10.30;80.30;;;;;;5052993;28;20021;-56
2022/11/12 01:41:06;;;;;;;7.20;5.65;;;10.20;80.40;;;;;;5052128;28;20029;-56
2022/11/12 01:43:32;;;;;;;7.05;4.82;;;10.20;80.50;;;;;;5060291;28;20020;-57
2022/11/12 01:46:01;;;;;;;7.65;5.70;;;10.10;80.60;;;;;;5053583;28;20060;-56
2022/11/12 01:48:46;;;;;;;8.38;5.97;;;10.10;80.60;;;;;;5057997;28;20091;-57
2022/11/12 01:51:13;;;;;;;9.27;6.15;;;10.10;80.40;;;;;;5055626;28;20063;-56
2022/11/12 01:53:46;;;;;;;7.03;5.60;;;10.10;80.40;;;;;;5050440;28;20365;-56
2022/11/12 01:56:13;;;;;;;7.97;5.88;;;10.10;80.30;;;;;;5055404;28;20032;-57
2022/11/12 01:58:40;;;;;;;6.35;5.28;;;10.00;80.30;;;;;;5050439;28;20530;-56
2022/11/12 02:01:05;;;;;;;7.35;6.00;;;10.00;80.30;;;;;;5057375;28;20021;-55
2022/11/12 02:03:31;;;;;;;7.13;5.15;;;10.00;80.30;;;;;;5056309;28;20087;-55
2022/11/12 02:06:08;;;;;;;8.10;6.00;;;10.00;80.10;;;;;;5051497;28;20044;-55
2022/11/12 02:08:34;;;;;;;7.75;5.85;;;10.00;80.20;;;;;;5052571;28;20380;-54
2022/11/12 02:11:12;;;;;;;8.50;6.43;;;9.90;80.00;;;;;;5050489;28;20074;-55
2022/11/12 02:13:57;;;;;;;7.82;5.70;;;9.90;79.90;;;;;;5054314;28;20357;-55
2022/11/12 02:16:44;;;;;;;8.05;6.22;;;9.90;79.90;;;;;;5043110;28;20041;-55
2022/11/12 02:19:13;;;;;;;8.60;5.30;;;9.90;79.90;;;;;;5063307;28;20029;-55
2022/11/12 02:21:39;;;;;;;7.72;5.85;;;9.80;79.90;;;;;;5065871;28;20059;-56
2022/11/12 02:24:11;;;;;;;9.23;5.28;;;9.80;79.80;;;;;;5057508;28;20042;-56
2022/11/12 02:26:46;;;;;;;7.75;5.57;;;9.80;79.80;;;;;;5065469;28;20029;-55
2022/11/12 02:29:12;;;;;;;6.97;4.90;;;9.80;79.80;;;;;;5067353;28;20021;-55
2022/11/12 02:31:38;;;;;;;6.53;5.18;;;9.70;79.90;;;;;;5064147;28;20095;-56
2022/11/12 02:34:03;;;;;;;7.20;5.07;;;9.70;79.80;;;;;;5063858;28;20404;-55
2022/11/12 02:36:29;;;;;;;8.77;5.95;;;9.70;79.70;;;;;;5062484;28;20041;-56
2022/11/12 02:38:55;;;;;;;8.88;5.95;;;9.70;79.60;;;;;;5052681;28;20459;-55
2022/11/12 02:41:21;;;;;;;6.05;4.78;;;9.70;79.50;;;;;;5053666;28;20496;-56
2022/11/12 02:43:46;;;;;;;7.15;5.25;;;9.70;79.50;;;;;;5063320;28;20028;-56
2022/11/12 02:46:12;;;;;;;6.57;4.97;;;9.70;79.50;;;;;;5057151;28;20447;-56
2022/11/12 02:48:38;;;;;;;8.10;5.95;;;9.60;79.40;;;;;;5058061;28;20024;-56
2022/11/12 02:51:04;;;;;;;9.00;5.60;;;9.60;79.40;;;;;;5064477;28;20067;-55
2022/11/12 02:53:31;;;;;;;6.53;5.30;;;9.60;79.50;;;;;;5057132;28;20037;-55
2022/11/12 02:55:57;;;;;;;6.85;5.00;;;9.60;79.60;;;;;;5054953;28;20495;-55
2022/11/12 02:58:23;;;;;;;6.35;4.70;;;9.60;79.70;;;;;;5061371;28;20071;-56
2022/11/12 03:00:50;;;;;;;5.88;4.43;;;9.60;79.70;;;;;;5055413;28;20491;-56
2022/11/12 03:03:16;;;;;;;5.72;4.80;;;9.60;79.80;;;;;;5062361;28;20070;-54
2022/11/12 03:05:42;;;;;;;7.90;5.22;;;9.60;79.70;;;;;;5044632;28;20495;-55
2022/11/12 03:08:09;;;;;;;8.30;5.50;;;9.60;79.80;;;;;;5057336;28;20025;-56
2022/11/12 03:10:37;;;;;;;7.00;5.30;;;9.60;79.80;;;;;;5055825;28;20044;-56
2022/11/12 03:13:03;;;;;;;7.30;5.30;;;9.60;79.80;;;;;;5063261;28;20049;-55
2022/11/12 03:15:29;;;;;;;7.75;5.50;;;9.60;79.90;;;;;;5062494;28;20040;-57
2022/11/12 03:17:57;;;;;;;8.13;5.65;;;9.70;79.80;;;;;;5058189;28;20029;-55
2022/11/12 03:20:23;;;;;;;6.15;4.75;;;9.70;79.70;;;;;;5055090;28;20029;-55
2022/11/12 03:23:01;;;;;;;6.95;5.03;;;9.70;79.60;;;;;;5063915;28;20039;-55
2022/11/12 03:25:27;;;;;;;6.80;5.25;;;9.70;79.70;;;;;;5067893;28;20040;-55
2022/11/12 03:27:58;;;;;;;7.25;5.50;;;9.70;79.50;;;;;;5057638;28;20053;-55
2022/11/12 03:30:25;;;;;;;8.35;6.18;;;9.60;79.40;;;;;;5055302;28;20029;-55
2022/11/12 03:32:51;;;;;;;5.43;4.78;;;9.60;79.30;;;;;;5059633;28;20065;-54
2022/11/12 03:35:17;;;;;;;6.45;5.30;;;9.60;79.20;;;;;;5058492;28;20060;-55
2022/11/12 03:37:42;;;;;;;6.38;5.20;;;9.60;79.20;;;;;;5059723;28;20480;-54
2022/11/12 03:40:09;;;;;;;8.15;5.50;;;9.50;79.20;;;;;;5052493;28;20029;-55
2022/11/12 03:42:34;;;;;;;6.63;5.03;;;9.50;79.00;;;;;;5058817;28;20028;-55
2022/11/12 03:45:00;;;;;;;8.10;5.32;;;9.50;79.20;;;;;;5061628;28;20036;-55
2022/11/12 03:47:25;;;;;;;6.65;5.15;;;9.50;79.20;;;;;;5057904;28;20071;-55
2022/11/12 03:49:51;;;;;;;7.30;5.07;;;9.50;79.10;;;;;;5052551;28;20029;-55
2022/11/12 03:52:17;;;;;;;6.40;5.03;;;9.40;79.20;;;;;;5059483;28;20033;-54
2022/11/12 03:54:42;;;;;;;6.78;5.32;;;9.40;79.20;;;;;;5056871;28;20024;-56
2022/11/12 03:57:08;;;;;;;7.97;5.30;;;9.40;79.20;;;;;;5058906;28;20040;-55
2022/11/12 03:59:33;;;;;;;7.38;5.28;;;9.40;79.20;;;;;;5061851;28;20037;-55
2022/11/12 04:01:59;;;;;;;6.50;4.63;;;9.40;79.20;;;;;;5056802;28;20033;-56
2022/11/12 04:08:34;;;;;;;7.88;5.72;;;9.30;79.20;;;;;;5049262;28;20038;-56
2022/11/12 04:10:14;;;;;;;6.50;4.60;;;9.30;79.20;;;;;;5010997;28;20029;-54
2022/11/12 04:15:24;;;;;;;6.88;4.93;;;9.30;79.30;;;;;;5032730;28;20103;-56
2022/11/12 04:23:18;;;;;;;7.53;5.60;;;9.20;79.20;;;;;;5056616;28;20558;-57
2022/11/12 04:28:28;;;;;;;5.68;4.13;;;9.10;79.60;;;;;;5063612;28;20086;-56
2022/11/12 04:30:54;;;;;;;5.35;4.10;;;9.10;79.70;;;;;;5060606;28;20029;-55
2022/11/12 04:33:19;;;;;;;5.60;4.82;;;9.10;79.60;;;;;;5055329;28;20056;-56
2022/11/12 04:35:45;;;;;;;6.03;4.53;;;9.10;79.50;;;;;;5062176;28;20052;-55
2022/11/12 04:38:10;;;;;;;6.15;5.03;;;9.10;79.50;;;;;;5051613;28;20263;-55
2022/11/12 04:46:04;;;;;;;6.38;4.78;;;9.00;79.30;;;;;;5057236;28;20032;-56
2022/11/12 04:48:30;;;;;;;9.48;5.93;;;9.00;79.20;;;;;;5057421;28;20033;-56
2022/11/12 04:50:58;;;;;;;9.13;5.28;;;9.00;79.20;;;;;;5061141;28;20392;-56
2022/11/12 04:53:24;;;;;;;8.30;6.88;;;9.00;79.40;;;;;;5057999;28;20093;-56
2022/11/12 04:55:52;;;;;;;6.75;4.80;;;9.00;79.50;;;;;;5047732;28;20032;-54
2022/11/12 04:58:18;;;;;;;8.02;5.53;;;9.00;79.60;;;;;;5055477;28;20100;-55
2022/11/12 05:00:43;;;;;;;9.25;6.05;;;9.00;79.70;;;;;;5058338;28;20485;-55
2022/11/12 05:03:09;;;;;;;7.20;5.22;;;9.00;80.30;;;;;;5057794;28;20070;-55
2022/11/12 05:05:35;;;;;;;8.52;5.72;;;8.90;79.50;;;;;;5055340;28;20544;-55
2022/11/12 05:08:02;;;;;;;6.45;5.05;;;9.00;79.50;;;;;;5053954;28;20056;-56
2022/11/12 05:10:28;;;;;;;5.95;4.72;;;9.00;79.60;;;;;;5057499;28;20021;-55
2022/11/12 05:12:54;;;;;;;6.45;4.60;;;9.00;79.80;;;;;;5059905;28;20056;-55
2022/11/12 05:15:20;;;;;;;8.15;5.00;;;9.00;79.60;;;;;;5048513;28;20060;-56
2022/11/12 05:17:45;;;;;;;6.75;4.60;;;9.00;79.40;;;;;;5063013;28;20039;-55
2022/11/12 05:20:12;;;;;;;8.05;4.75;;;9.00;79.20;;;;;;5058138;28;20028;-55
2022/11/12 05:22:38;;;;;;;7.97;4.53;;;9.00;79.30;;;;;;5047458;28;20067;-55
2022/11/12 05:25:05;;;;;;;7.03;4.60;;;9.00;79.30;;;;;;5051961;28;20033;-56
2022/11/12 05:27:31;;;;;;;6.97;4.38;;;9.00;79.40;;;;;;5058286;28;20032;-56
2022/11/12 05:29:56;;;;;;;5.72;4.13;;;9.00;79.60;;;;;;5056939;28;20028;-56
2022/11/12 05:32:22;;;;;;;6.13;4.10;;;9.10;79.50;;;;;;5058616;28;20025;-55
2022/11/12 05:34:48;;;;;;;5.85;4.30;;;9.10;79.60;;;;;;5058485;28;20408;-55
2022/11/12 05:37:14;;;;;;;6.10;4.65;;;9.10;79.60;;;;;;5058754;28;20032;-55
2022/11/12 05:39:40;;;;;;;7.00;4.78;;;9.10;79.50;;;;;;5063870;28;20098;-56
2022/11/12 05:42:06;;;;;;;7.03;4.85;;;9.20;79.50;;;;;;5055678;28;20028;-55
2022/11/12 05:44:32;;;;;;;7.30;4.57;;;9.20;79.60;;;;;;5055721;28;20044;-55
2022/11/12 05:46:57;;;;;;;5.93;4.50;;;9.20;79.60;;;;;;5059248;28;20029;-56
2022/11/12 05:49:23;;;;;;;7.57;4.60;;;9.30;79.60;;;;;;5058055;28;20404;-56
2022/11/12 05:51:50;;;;;;;7.88;5.03;;;9.30;79.50;;;;;;5053831;28;20027;-56
2022/11/12 05:54:16;;;;;;;7.18;5.03;;;9.40;79.40;;;;;;5059370;28;20108;-56
2022/11/12 05:56:42;;;;;;;7.60;4.82;;;9.40;79.20;;;;;;5057972;28;20045;-55
2022/11/12 05:59:10;;;;;;;7.65;5.30;;;9.40;79.20;;;;;;5056071;28;20033;-56
2022/11/12 06:01:42;;;;;;;7.53;4.97;;;9.40;79.10;;;;;;5054562;28;20036;-56
2022/11/12 06:04:12;;;;;;;6.97;5.00;;;9.50;79.10;;;;;;5049744;28;20107;-55
2022/11/12 06:06:41;;;;;;;6.03;4.35;;;9.50;79.20;;;;;;5050827;28;20107;-55
2022/11/12 06:09:08;;;;;;;6.75;4.63;;;9.60;79.30;;;;;;5053654;28;20451;-56
2022/11/12 06:11:34;;;;;;;6.45;4.68;;;9.60;79.40;;;;;;5066245;28;20024;-56
2022/11/12 06:14:00;;;;;;;6.55;4.72;;;9.70;79.50;;;;;;5059751;28;20037;-55
2022/11/12 06:16:26;;;;;;;6.03;3.95;;;9.70;79.40;;;;;;5061064;28;20048;-55
2022/11/12 06:18:51;;;;;;;7.03;4.85;;;9.80;79.30;;;;;;5053339;28;20063;-55
2022/11/12 06:21:23;;;;;;;7.22;5.40;;;9.90;79.30;;;;;;5053157;28;20462;-55
2022/11/12 06:23:51;;;;;;;6.20;5.10;;;10.00;79.10;;;;;;5061916;28;20053;-57
2022/11/12 06:26:18;;;;;;;5.70;4.28;;;10.00;78.70;;;;;;5047117;28;20021;-56
2022/11/12 06:28:44;;;;;;;6.30;4.53;;;10.10;78.70;;;;;;5049118;28;20089;-55
2022/11/12 06:31:10;;;;;;;7.00;4.43;;;10.10;78.70;;;;;;5056086;28;20043;-55
2022/11/12 06:33:36;;;;;;;4.85;4.07;;;10.10;78.60;;;;;;5057904;28;20127;-55
2022/11/12 06:36:04;;;;;;;6.20;4.38;;;10.10;78.60;;;;;;5055842;28;20129;-55
2022/11/12 06:38:34;;;;;;;6.63;4.95;;;10.10;78.60;;;;;;5056342;28;20438;-56
2022/11/12 06:41:00;;;;;;;6.53;4.85;;;10.10;78.60;;;;;;5041026;28;20107;-57
2022/11/12 06:43:28;;;;;;;7.15;4.65;;;10.20;78.70;;;;;;5063664;28;20020;-55
2022/11/12 06:45:53;;;;;;;5.45;4.03;;;10.20;78.40;;;;;;5062122;28;20510;-55
2022/11/12 06:48:19;;;;;;;5.22;4.10;;;10.20;78.40;;;;;;5050976;28;20057;-56
2022/11/12 06:50:45;;;;;;;5.95;4.80;;;10.20;78.50;;;;;;5055274;28;20052;-55
2022/11/12 06:53:10;;;;;;;4.78;3.80;;;10.20;78.50;;;;;;5050729;28;20531;-55
2022/11/12 06:55:36;;;;;;;4.63;3.88;;;10.30;78.60;;;;;;5051666;28;20400;-56
2022/11/12 06:58:01;;;;;;;4.97;4.03;;;10.30;78.50;;;;;;5052115;28;20032;-56
2022/11/12 07:00:27;;;;;;;5.93;4.28;;;10.40;78.50;;;;;;5050746;28;20039;-55
2022/11/12 07:02:53;;;;;;;7.72;4.63;;;10.40;78.30;;;;;;5053569;28;20039;-58
2022/11/12 07:05:18;;;;;;;4.75;3.90;;;10.40;78.20;;;;;;5051561;28;20138;-54
2022/11/12 07:07:44;;;;;;;5.45;4.18;;;10.30;78.40;;;;;;5053471;28;20036;-55
2022/11/12 07:10:09;;;;;;;5.85;4.43;;;10.30;78.40;;;;;;5057131;28;20086;-55
2022/11/12 07:12:35;;;;;;;5.75;4.90;;;10.30;78.40;;;;;;5062184;28;20373;-56
2022/11/12 07:15:01;;;;;;;6.28;4.68;;;10.30;78.50;;;;;;5063484;28;20094;-55
2022/11/12 07:17:26;;;;;;;5.07;3.95;;;10.30;78.50;;;;;;5056181;28;20032;-57
2022/11/12 07:19:52;;;;;;;5.68;4.45;;;10.40;78.40;;;;;;5064838;28;20028;-56
2022/11/12 07:22:17;;;;;;;5.40;3.90;;;10.40;78.40;;;;;;5060797;28;20036;-55
2022/11/12 07:24:43;;;;;;;5.07;3.92;;;10.30;78.40;;;;;;5071378;28;20036;-56
2022/11/12 07:27:09;;;;;;;5.65;4.63;;;10.40;78.60;;;;;;5060927;28;20054;-54
2022/11/12 07:29:34;;;;;;;5.72;4.95;;;10.40;78.60;;;;;;5059000;28;20362;-56
2022/11/12 07:32:00;;;;;;;6.40;5.03;;;10.40;78.60;;;;;;5053337;28;20017;-57
2022/11/12 07:34:25;;;;;;;6.82;5.32;;;10.40;78.80;;;;;;5060488;28;20078;-56
2022/11/12 07:36:51;;;;;;;5.82;4.70;;;10.30;78.50;;;;;;5058721;28;20112;-56
2022/11/12 07:39:17;;;;;;;5.95;4.72;;;10.40;78.70;;;;;;5051712;28;20143;-55
2022/11/12 07:41:43;;;;;;;7.50;5.15;;;10.40;78.70;;;;;;5062190;28;20033;-56
2022/11/12 07:44:09;;;;;;;8.77;5.22;;;10.40;78.70;;;;;;5056573;28;20055;-56
2022/11/12 07:46:38;;;;;;;6.97;4.78;;;10.40;78.80;;;;;;5060708;28;20029;-56
2022/11/12 07:49:03;;;;;;;7.22;5.38;;;10.40;78.90;;;;;;5065502;28;20104;-56
2022/11/12 07:51:29;;;;;;;6.75;5.10;;;10.40;78.90;;;;;;5060244;28;20448;-56
2022/11/12 07:53:58;;;;;;;5.68;4.68;;;10.40;79.00;;;;;;5055071;28;20033;-55
2022/11/12 07:56:25;;;;;;;6.13;4.57;;;10.50;79.10;;;;;;5052566;28;20025;-56
2022/11/12 07:58:51;;;;;;;7.35;5.75;;;10.40;79.20;;;;;;5058706;28;20031;-56
2022/11/12 08:01:40;;;;;;;8.00;5.85;;;10.50;79.20;;;;;;5051699;28;20025;-57
2022/11/12 08:04:10;;;;;;;7.70;5.72;;;10.50;79.10;;;;;;5055102;28;20459;-56
2022/11/12 08:06:37;;;;;;;7.47;4.88;;;10.50;79.20;;;;;;5064064;28;20027;-55
2022/11/12 08:09:05;;;;;;;7.78;5.88;;;10.50;79.20;;;;;;5054547;28;20028;-56
2022/11/12 08:11:31;;;;;;;7.18;5.50;;;10.60;79.40;;;;;;5062394;28;20021;-55
2022/11/12 08:13:57;;;;;;;6.45;4.90;;;10.60;79.50;;;;;;5056143;28;20022;-56
2022/11/12 08:16:23;;;;;;;7.53;5.32;;;10.70;79.50;;;;;;5059429;28;20021;-55
2022/11/12 08:18:49;;;;;;;6.30;4.90;;;10.70;79.60;;;;;;5058947;28;20056;-56
2022/11/12 08:21:21;;;;;;;6.53;4.70;;;10.70;79.60;;;;;;5062358;28;20044;-56
2022/11/12 08:23:47;;;;;;;6.40;5.10;;;10.80;79.60;;;;;;5065621;28;20063;-56
2022/11/12 08:26:16;;;;;;;6.75;4.88;;;10.80;79.80;;;;;;5060046;28;20033;-55
2022/11/12 08:28:43;;;;;;;6.10;4.40;;;10.90;79.70;;;;;;5056060;28;20428;-57
2022/11/12 08:31:20;;;;;;;5.78;4.38;;;10.90;79.60;;;;;;5052866;28;20104;-57
2022/11/12 08:33:45;;;;;;;5.75;4.20;;;11.00;79.60;;;;;;5047054;28;20037;-56
2022/11/12 08:36:13;;;;;;;6.10;4.13;;;11.10;79.70;;;;;;5055660;28;20039;-57
2022/11/12 08:38:40;;;;;;;7.82;5.35;;;11.10;79.60;;;;;;5059482;28;20504;-56
2022/11/12 08:41:12;;;;;;;7.60;4.55;;;11.20;79.50;;;;;;5078068;28;20031;-56
2022/11/12 08:43:39;;;;;;;4.93;3.80;;;11.20;79.40;;;;;;5053103;28;20024;-57
2022/11/12 08:46:05;;;;;;;5.35;4.32;;;11.30;79.40;;;;;;5056379;28;20476;-56
2022/11/12 08:48:32;;;;;;;7.13;5.13;;;11.40;79.30;;;;;;5053564;28;20040;-57
2022/11/12 08:51:01;;;;;;;6.63;4.18;;;11.40;79.40;;;;;;5055579;28;20090;-57
2022/11/12 08:53:27;;;;;;;5.72;4.57;;;11.40;79.40;;;;;;5053185;28;20060;-57
2022/11/12 08:55:56;;;;;;;4.63;4.00;;;11.50;79.40;;;;;;5054200;28;20047;-57
2022/11/12 08:58:22;;;;;;;5.60;4.38;;;11.50;79.30;;;;;;5055649;28;20052;-55
2022/11/12 09:00:49;;;;;;;6.68;4.95;;;11.60;79.50;;;;;;5052311;28;20047;-56
2022/11/12 09:03:17;;;;;;;7.60;5.57;;;11.70;79.50;;;;;;5052266;28;20086;-57
2022/11/12 09:05:43;;;;;;;7.13;4.75;;;11.70;79.20;;;;;;5052491;28;20041;-56
2022/11/12 09:08:12;;;;;;;6.30;4.20;;;11.80;79.10;;;;;;5059768;28;20069;-56
2022/11/12 09:10:38;;;;;;;6.35;4.97;;;11.80;79.20;;;;;;5060944;28;20028;-58
2022/11/12 09:13:04;;;;;;;7.32;4.95;;;11.90;79.20;;;;;;5053372;28;20060;-56
2022/11/12 09:15:30;;;;;;;7.13;4.93;;;11.90;79.10;;;;;;5065189;28;20080;-57
2022/11/12 09:18:01;;;;;;;6.68;4.10;;;12.00;79.10;;;;;;5062392;28;20112;-56
2022/11/12 09:20:28;;;;;;;8.20;5.20;;;12.00;78.90;;;;;;5058284;28;20515;-56
2022/11/12 09:23:06;;;;;;;5.00;3.92;;;12.00;78.90;;;;;;5057734;28;20043;-57
2022/11/12 09:25:32;;;;;;;6.05;4.03;;;12.00;79.00;;;;;;5057765;28;20064;-56
2022/11/12 09:28:11;;;;;;;5.40;3.80;;;12.10;79.00;;;;;;5056749;28;20048;-57
2022/11/12 09:30:41;;;;;;;5.20;3.80;;;12.10;78.90;;;;;;5048145;28;20054;-55
2022/11/12 09:33:07;;;;;;;5.95;3.92;;;12.20;78.90;;;;;;5050930;28;20024;-55
2022/11/12 09:35:33;;;;;;;5.00;4.05;;;12.20;78.60;;;;;;5051054;28;20029;-57
2022/11/12 09:37:58;;;;;;;9.98;4.82;;;12.30;78.70;;;;;;5057558;28;20037;-57
2022/11/12 09:40:43;;;;;;;5.38;4.45;;;12.30;78.60;;;;;;5056774;28;20109;-57
2022/11/12 09:43:22;;;;;;;4.60;3.78;;;12.30;78.60;;;;;;5048030;28;20451;-56
2022/11/12 09:45:50;;;;;;;5.10;3.70;;;12.40;78.60;;;;;;5055790;28;20029;-57
2022/11/12 09:48:41;;;;;;;5.68;3.70;;;12.40;78.60;;;;;;5066919;28;20121;-57
2022/11/12 09:51:25;;;;;;;;;;;12.50;78.60;;;;;;5053719;28;20488;-57
2022/11/12 09:53:58;;;;;;;7.50;4.32;;;12.50;78.50;;;;;;5056170;28;19909;-57
2022/11/12 09:56:25;;;;;;;4.70;3.80;;;12.50;78.30;;;;;;5058993;28;20379;-57
2022/11/12 09:58:51;;;;;;;5.82;4.25;;;12.60;78.30;;;;;;5065954;28;20021;-56
2022/11/12 10:01:35;;;;;;;5.55;3.67;;;12.60;78.20;;;;;;5048327;28;20025;-57
2022/11/12 12:18:41;;;;;;;4.90;3.35;;;13.00;73.90;;;;;;5073835;28;20421;-55
2022/11/12 12:21:13;;;;;;;4.55;3.60;;;13.80;75.70;;;;;;5053746;28;20033;-57
2022/11/12 12:23:44;;;;;;;;;;;13.90;76.00;;;;;;5063569;28;20025;-57
2022/11/12 12:26:41;;;;;;;5.03;3.40;;;13.90;75.40;;;;;;5052067;28;19961;-56
2022/11/12 12:29:11;;;;;;;4.00;3.25;;;13.90;76.00;;;;;;5039019;28;20026;-57
2022/11/12 12:31:43;;;;;;;5.75;4.10;;;13.90;76.40;;;;;;5057865;28;20025;-57
2022/11/12 12:34:18;;;;;;;6.15;3.90;;;13.90;76.30;;;;;;5053744;28;20053;-57
2022/11/12 12:36:45;;;;;;;7.43;4.43;;;13.90;76.40;;;;;;5060256;28;20028;-57
2022/11/12 12:39:21;;;;;;;5.80;4.20;;;13.90;76.30;;;;;;5059400;28;20025;-57
2022/11/12 12:42:00;;;;;;;7.30;4.60;;;13.90;76.30;;;;;;5059958;28;20440;-57
2022/11/12 12:47:17;;;;;;;5.20;3.92;;;13.90;76.10;;;;;;5053412;28;20037;-57
2022/11/12 12:49:45;;;;;;;3.95;3.40;;;13.90;76.80;;;;;;5062970;28;20392;-57
2022/11/12 12:52:13;;;;;;;4.10;3.20;;;13.90;76.00;;;;;;5057974;28;20535;-56
2022/11/12 12:54:50;;;;;;;3.75;2.80;;;13.90;76.00;;;;;;5070779;28;20484;-57
2022/11/12 12:57:29;;;;;;;4.70;3.53;;;14.00;76.10;;;;;;5054074;28;20033;-57
2022/11/12 13:00:34;;;;;;;3.97;2.90;;;14.00;76.00;;;;;;5055874;28;20053;-57
2022/11/12 13:02:59;;;;;;;4.38;3.08;;;14.00;75.80;;;;;;5048074;28;20032;-57
2022/11/12 13:05:34;;;;;;;3.60;2.78;;;14.00;75.80;;;;;;5066122;28;20028;-58
2022/11/12 13:08:12;;;;;;;5.72;3.30;;;14.00;75.80;;;;;;5055501;28;20499;-57
2022/11/12 13:10:40;;;;;;;4.40;3.22;;;14.10;75.70;;;;;;5046548;28;20105;-56
2022/11/12 13:13:18;;;;;;;4.57;3.38;;;14.10;75.70;;;;;;5065931;28;20080;-58
2022/11/12 13:15:46;;;;;;;5.05;2.83;;;14.10;75.60;;;;;;5046070;28;20040;-56
2022/11/12 13:18:37;;;;;;;4.57;2.70;;;14.10;75.50;;;;;;5046811;28;20458;-57
2022/11/12 13:21:18;;;;;;;4.68;3.28;;;14.10;75.30;;;;;;5044289;28;20026;-56
2022/11/12 13:24:07;;;;;;;4.53;3.30;;;14.10;75.20;;;;;;5054817;28;20344;-57
2022/11/12 13:26:38;;;;;;;3.90;3.50;;;14.20;75.10;;;;;;5054137;28;20025;-57
2022/11/12 13:29:28;;;;;;;4.82;3.28;;;14.10;75.00;;;;;;5043566;28;20025;-56
2022/11/12 13:32:32;;;;;;;4.13;3.25;;;14.10;74.90;;;;;;5028966;28;20033;-56
2022/11/12 13:35:22;;;;;;;3.63;2.80;;;14.10;74.80;;;;;;5047396;28;20048;-57
2022/11/12 13:37:58;;;;;;;4.10;3.17;;;14.10;74.80;;;;;;5038258;28;20032;-57
2022/11/12 13:40:29;;;;;;;4.00;3.30;;;14.10;74.80;;;;;;5037326;28;20067;-57
2022/11/12 13:42:55;;;;;;;;;;;14.10;74.80;;;;;;5031158;28;20034;-55
2022/11/12 13:45:26;;;;;;;5.63;3.33;;;14.00;74.60;;;;;;5027186;28;20156;-56
2022/11/12 13:47:52;;;;;;;4.68;3.65;;;14.00;74.90;;;;;;5041321;28;20045;-57
2022/11/12 13:50:23;;;;;;;4.63;3.50;;;14.00;74.80;;;;;;5039252;28;20071;-57
2022/11/12 13:52:49;;;;;;;3.38;3.03;;;14.00;74.80;;;;;;5034600;28;20081;-57
2022/11/12 13:55:20;;;;;;;5.22;3.50;;;14.00;74.80;;;;;;5039576;28;20512;-57
2022/11/12 13:57:49;;;;;;;4.22;3.22;;;13.90;74.70;;;;;;5037843;28;20060;-57
2022/11/12 14:00:19;;;;;;;5.07;3.75;;;13.90;74.70;;;;;;5039553;28;20060;-55
2022/11/12 14:02:57;;;;;;;3.92;3.22;;;13.90;74.60;;;;;;5040003;28;20030;-57
2022/11/12 14:05:28;;;;;;;5.22;3.58;;;13.90;74.70;;;;;;5035572;28;20411;-58
2022/11/12 14:08:30;;;;;;;4.47;3.53;;;13.90;74.50;;;;;;5038937;28;20029;-57
2022/11/12 14:11:13;;;;;;;6.32;4.05;;;13.90;74.50;;;;;;5036808;28;20121;-57
2022/11/12 14:14:04;;;;;;;4.97;3.65;;;13.90;74.60;;;;;;5042347;28;20029;-57
2022/11/12 14:17:00;;;;;;;3.50;3.13;;;13.90;74.50;;;;;;5032766;28;20049;-57
2022/11/12 14:19:47;;;;;;;5.15;3.65;;;13.80;74.50;;;;;;5031481;28;20435;-57
2022/11/12 14:22:16;;;;;;;4.75;3.47;;;13.80;74.50;;;;;;5033937;28;20096;-56
2022/11/12 14:24:42;;;;;;;4.88;3.70;;;13.80;74.40;;;;;;5039318;28;20060;-57
2022/11/12 14:27:23;;;;;;;4.78;3.78;;;13.80;74.40;;;;;;5039430;28;20503;-56
2022/11/12 14:30:02;;;;;;;5.95;3.50;;;13.80;74.40;;;;;;5037123;28;20029;-58
2022/11/12 14:32:36;;;;;;;5.97;3.60;;;13.70;74.40;;;;;;5037528;28;20054;-58
2022/11/12 14:35:20;;;;;;;4.57;3.45;;;13.70;74.50;;;;;;5037545;28;20487;-57
2022/11/12 14:38:04;;;;;;;4.35;3.20;;;13.70;74.50;;;;;;5037879;28;20060;-57
2022/11/12 14:40:34;;;;;;;6.13;4.28;;;13.70;74.60;;;;;;5038332;28;20044;-56
2022/11/12 14:43:00;;;;;;;5.03;4.00;;;13.70;74.50;;;;;;5035777;28;20040;-57
2022/11/12 14:45:25;;;;;;;5.50;4.00;;;13.60;74.50;;;;;;5036199;28;20396;-58
2022/11/12 14:47:52;;;;;;;5.80;3.83;;;13.60;74.60;;;;;;5035976;28;20056;-56
2022/11/12 14:50:21;;;;;;;5.70;4.28;;;13.60;74.50;;;;;;5039961;28;20041;-56
2022/11/12 14:52:50;;;;;;;6.07;4.07;;;13.60;74.60;;;;;;5034711;28;20034;-58
2022/11/12 14:55:21;;;;;;;6.88;4.53;;;13.60;74.70;;;;;;5030961;28;20436;-56
2022/11/12 14:57:47;;;;;;;;;;;13.60;74.60;;;;;;5033895;28;20080;-54
2022/11/12 15:00:19;;;;;;;3.50;3.15;;;13.50;74.50;;;;;;5026154;28;19909;-55
2022/11/12 15:02:45;;;;;;;4.07;3.25;;;13.50;74.70;;;;;;5026362;28;20037;-56
2022/11/12 15:05:17;;;;;;;4.63;3.33;;;13.50;74.70;;;;;;5028469;28;20032;-57
2022/11/12 15:08:00;;;;;;;5.68;3.88;;;13.50;74.70;;;;;;5031945;28;20473;-56
2022/11/12 15:10:36;;;;;;;4.50;3.50;;;13.50;74.70;;;;;;5031186;28;20503;-57
2022/11/12 15:13:12;;;;;;;5.60;4.30;;;13.40;74.60;;;;;;5033399;28;20028;-56
2022/11/12 15:15:48;;;;;;;4.60;3.78;;;13.40;74.70;;;;;;5035457;28;20072;-56
2022/11/12 15:18:29;;;;;;;4.97;3.65;;;13.40;74.70;;;;;;5032444;28;20025;-57
2022/11/12 15:21:24;;;;;;;5.90;4.07;;;13.40;74.80;;;;;;5034920;28;20026;-58
2022/11/12 15:23:57;;;;;;;5.20;3.92;;;13.40;74.70;;;;;;5033116;28;20037;-57
2022/11/12 15:26:32;;;;;;;5.63;4.45;;;13.40;74.80;;;;;;5034004;28;20532;-57
2022/11/12 15:28:58;;;;;;;5.80;4.10;;;13.40;74.90;;;;;;5033871;28;20026;-56
2022/11/12 15:31:24;;;;;;;7.40;4.80;;;13.30;74.80;;;;;;5031032;28;20088;-56
2022/11/12 15:33:50;;;;;;;6.35;4.55;;;13.40;74.80;;;;;;5033798;28;20029;-57
2022/11/12 15:36:21;;;;;;;5.97;4.63;;;13.30;74.80;;;;;;5027695;28;20400;-56
2022/11/12 15:38:54;;;;;;;6.80;5.47;;;13.30;74.90;;;;;;5032465;28;20025;-57